SJX841 RJFF-RCTP
Flight info
| Callsign | SJX841 |
|---|---|
| Flight time | N/A |
| Altitude | 40000 |
| Route | YAMGA HKC A1 DRAKE DRAKE1A |
| Aircraft | A339/H-SADE1E2E3GHIJ3J5M1P2RWXY/LB2D1 |
Departure
| Time | 2026-05-05 21:59 |
|---|---|
| Airport | Fukuoka Airport (RJFF) |
Arrival
| Time | N/A |
|---|---|
| Airport | Taiwan Taoyuan International Airport (RCTP) |
| Time | Latitude | Longitude | Altitude | Speed | Heading |
|---|---|---|---|---|---|
| 2026-05-05 21:20 | 33.59904 | 130.44612 | 49 ft | 0 kts | 60° |
| 2026-05-05 21:47 | 33.59902 | 130.44609 | 49 ft | 2 kts | 60° |
| 2026-05-05 21:47 | 33.59895 | 130.44592 | 49 ft | 2 kts | 60° |
| 2026-05-05 21:47 | 33.59887 | 130.44577 | 49 ft | 2 kts | 60° |
| 2026-05-05 21:47 | 33.59880 | 130.44562 | 49 ft | 2 kts | 60° |
| 2026-05-05 21:48 | 33.59872 | 130.44547 | 49 ft | 2 kts | 69° |
| 2026-05-05 21:48 | 33.59871 | 130.44528 | 49 ft | 2 kts | 102° |
| 2026-05-05 21:48 | 33.59876 | 130.44511 | 49 ft | 2 kts | 129° |
| 2026-05-05 21:48 | 33.59884 | 130.44502 | 49 ft | 0 kts | 149° |
| 2026-05-05 21:49 | 33.59889 | 130.44499 | 49 ft | 0 kts | 150° |
| 2026-05-05 21:53 | 33.59882 | 130.44504 | 49 ft | 2 kts | 149° |
| 2026-05-05 21:53 | 33.59854 | 130.44524 | 49 ft | 5 kts | 149° |
| 2026-05-05 21:54 | 33.59841 | 130.44533 | 49 ft | 0 kts | 149° |
| 2026-05-05 21:57 | 33.59840 | 130.44534 | 49 ft | 0 kts | 150° |
| 2026-05-05 21:57 | 33.59815 | 130.44540 | 49 ft | 6 kts | 185° |
| 2026-05-05 21:57 | 33.59766 | 130.44496 | 49 ft | 11 kts | 234° |
| 2026-05-05 21:57 | 33.59723 | 130.44409 | 49 ft | 12 kts | 239° |
| 2026-05-05 21:58 | 33.59690 | 130.44344 | 49 ft | 3 kts | 231° |
| 2026-05-05 21:58 | 33.59667 | 130.44341 | 49 ft | 5 kts | 155° |
| 2026-05-05 21:58 | 33.59625 | 130.44369 | 49 ft | 11 kts | 150° |
| 2026-05-05 21:58 | 33.59425 | 130.44504 | 49 ft | 65 kts | 150° |
| 2026-05-05 21:59 | 33.58839 | 130.44905 | 49 ft | 127 kts | 150° |
| 2026-05-05 21:59 | 33.57910 | 130.45538 | 155 ft | 168 kts | 150° |
| 2026-05-05 21:59 | 33.56910 | 130.46185 | 863 ft | 162 kts | 160° |
| 2026-05-05 21:59 | 33.55819 | 130.46262 | 1599 ft | 158 kts | 182° |
| 2026-05-05 22:00 | 33.54722 | 130.46243 | 2107 ft | 162 kts | 176° |
| 2026-05-05 22:00 | 33.53537 | 130.46149 | 2433 ft | 179 kts | 186° |
| 2026-05-05 22:00 | 33.52245 | 130.45918 | 2765 ft | 196 kts | 187° |
| 2026-05-05 22:00 | 33.50850 | 130.45657 | 3087 ft | 214 kts | 187° |
| 2026-05-05 22:01 | 33.49308 | 130.45381 | 3450 ft | 231 kts | 187° |
| 2026-05-05 22:01 | 33.47658 | 130.45094 | 3832 ft | 249 kts | 187° |
| 2026-05-05 22:01 | 33.45918 | 130.44800 | 4445 ft | 258 kts | 188° |
| 2026-05-05 22:01 | 33.44136 | 130.44501 | 5241 ft | 259 kts | 188° |
| 2026-05-05 22:02 | 33.42352 | 130.44203 | 5979 ft | 261 kts | 189° |
| 2026-05-05 22:02 | 33.40560 | 130.43901 | 6713 ft | 263 kts | 189° |
| 2026-05-05 22:02 | 33.38744 | 130.43593 | 7419 ft | 267 kts | 189° |
| 2026-05-05 22:02 | 33.36898 | 130.43283 | 8106 ft | 272 kts | 188° |
| 2026-05-05 22:03 | 33.35001 | 130.42970 | 8817 ft | 276 kts | 188° |
| 2026-05-05 22:03 | 33.33094 | 130.42656 | 9532 ft | 280 kts | 188° |
| 2026-05-05 22:03 | 33.31137 | 130.42331 | 10223 ft | 285 kts | 188° |
| 2026-05-05 22:03 | 33.29164 | 130.42003 | 10751 ft | 296 kts | 188° |
| 2026-05-05 22:04 | 33.27062 | 130.41656 | 11095 ft | 314 kts | 189° |
| 2026-05-05 22:04 | 33.24815 | 130.41284 | 11445 ft | 332 kts | 188° |
| 2026-05-05 22:04 | 33.22472 | 130.40898 | 11824 ft | 348 kts | 188° |
| 2026-05-05 22:04 | 33.20051 | 130.40501 | 12447 ft | 353 kts | 189° |
| 2026-05-05 22:05 | 33.17621 | 130.40102 | 13227 ft | 355 kts | 189° |
| 2026-05-05 22:05 | 33.15165 | 130.39699 | 13946 ft | 359 kts | 189° |
| 2026-05-05 22:05 | 33.12698 | 130.39294 | 14659 ft | 363 kts | 189° |
| 2026-05-05 22:05 | 33.10188 | 130.38882 | 15345 ft | 367 kts | 189° |
| 2026-05-05 22:06 | 33.07633 | 130.38461 | 15999 ft | 371 kts | 189° |
| 2026-05-05 22:06 | 33.05052 | 130.38037 | 16667 ft | 375 kts | 189° |
| 2026-05-05 22:06 | 33.02471 | 130.37614 | 17322 ft | 379 kts | 189° |
| 2026-05-05 22:06 | 32.99859 | 130.37186 | 17965 ft | 383 kts | 189° |
| 2026-05-05 22:07 | 32.97188 | 130.36751 | 18614 ft | 386 kts | 191° |
| 2026-05-05 22:07 | 32.94538 | 130.36320 | 19345 ft | 387 kts | 191° |
| 2026-05-05 22:07 | 32.91886 | 130.35889 | 20084 ft | 387 kts | 192° |
| 2026-05-05 22:07 | 32.89222 | 130.35454 | 20784 ft | 387 kts | 193° |
| 2026-05-05 22:08 | 32.86552 | 130.35016 | 21453 ft | 388 kts | 193° |
| 2026-05-05 22:08 | 32.83888 | 130.34581 | 22106 ft | 388 kts | 194° |
| 2026-05-05 22:08 | 32.81210 | 130.34145 | 22685 ft | 390 kts | 195° |
| 2026-05-05 22:08 | 32.78484 | 130.33688 | 22888 ft | 402 kts | 195° |
| 2026-05-05 22:09 | 32.75683 | 130.33223 | 23212 ft | 410 kts | 195° |
| 2026-05-05 22:09 | 32.72834 | 130.32753 | 23802 ft | 411 kts | 195° |
| 2026-05-05 22:09 | 32.70018 | 130.32292 | 24392 ft | 411 kts | 195° |
| 2026-05-05 22:09 | 32.67195 | 130.31836 | 24947 ft | 412 kts | 195° |
| 2026-05-05 22:10 | 32.64355 | 130.31375 | 25494 ft | 412 kts | 195° |
| 2026-05-05 22:10 | 32.61522 | 130.30911 | 26080 ft | 412 kts | 195° |
| 2026-05-05 22:10 | 32.58660 | 130.30444 | 26674 ft | 411 kts | 195° |
| 2026-05-05 22:10 | 32.55845 | 130.29990 | 27141 ft | 412 kts | 195° |
| 2026-05-05 22:11 | 32.52988 | 130.29515 | 27605 ft | 413 kts | 195° |
| 2026-05-05 22:11 | 32.50167 | 130.29060 | 28048 ft | 414 kts | 195° |
| 2026-05-05 22:11 | 32.47288 | 130.28590 | 28495 ft | 415 kts | 195° |
| 2026-05-05 22:11 | 32.44436 | 130.28131 | 29105 ft | 412 kts | 195° |
| 2026-05-05 22:12 | 32.41647 | 130.27689 | 29809 ft | 406 kts | 196° |
| 2026-05-05 22:12 | 32.38858 | 130.27235 | 30454 ft | 402 kts | 196° |
| 2026-05-05 22:12 | 32.36097 | 130.26791 | 31050 ft | 398 kts | 196° |
| 2026-05-05 22:12 | 32.33365 | 130.26340 | 31586 ft | 396 kts | 197° |
| 2026-05-05 22:13 | 32.30665 | 130.25900 | 32110 ft | 393 kts | 195° |
| 2026-05-05 22:13 | 32.27949 | 130.25462 | 32623 ft | 391 kts | 196° |
| 2026-05-05 22:13 | 32.25279 | 130.25034 | 33078 ft | 390 kts | 195° |
| 2026-05-05 22:13 | 32.22580 | 130.24597 | 33608 ft | 387 kts | 196° |
| 2026-05-05 22:14 | 32.19939 | 130.24173 | 34053 ft | 386 kts | 196° |
| 2026-05-05 22:14 | 32.17268 | 130.23744 | 34408 ft | 386 kts | 195° |
| 2026-05-05 22:14 | 32.14617 | 130.23312 | 34733 ft | 388 kts | 196° |
| 2026-05-05 22:14 | 32.11929 | 130.22878 | 35046 ft | 389 kts | 197° |
| 2026-05-05 22:15 | 32.09236 | 130.22444 | 35421 ft | 389 kts | 196° |
| 2026-05-05 22:15 | 32.06562 | 130.22012 | 35754 ft | 389 kts | 196° |
| 2026-05-05 22:15 | 32.03897 | 130.21584 | 36077 ft | 389 kts | 196° |
| 2026-05-05 22:15 | 32.01217 | 130.21155 | 36401 ft | 390 kts | 197° |
| 2026-05-05 22:16 | 31.98521 | 130.20721 | 36655 ft | 391 kts | 197° |
| 2026-05-05 22:16 | 31.95818 | 130.20288 | 36933 ft | 392 kts | 196° |
| 2026-05-05 22:16 | 31.93134 | 130.19859 | 37213 ft | 392 kts | 197° |
| 2026-05-05 22:16 | 31.90419 | 130.19423 | 37477 ft | 393 kts | 197° |
| 2026-05-05 22:17 | 31.87685 | 130.18983 | 37747 ft | 393 kts | 197° |
| 2026-05-05 22:17 | 31.84972 | 130.18550 | 37999 ft | 395 kts | 197° |
| 2026-05-05 22:17 | 31.82277 | 130.18114 | 38275 ft | 395 kts | 197° |
| 2026-05-05 22:17 | 31.79524 | 130.17674 | 38501 ft | 396 kts | 197° |
| 2026-05-05 22:18 | 31.76792 | 130.17235 | 38648 ft | 399 kts | 197° |
| 2026-05-05 22:18 | 31.74047 | 130.16797 | 38868 ft | 400 kts | 197° |
| 2026-05-05 22:18 | 31.71289 | 130.16359 | 39042 ft | 402 kts | 197° |
| 2026-05-05 22:18 | 31.68526 | 130.15912 | 39170 ft | 405 kts | 198° |
| 2026-05-05 22:19 | 31.65702 | 130.15462 | 39310 ft | 407 kts | 197° |
| 2026-05-05 22:19 | 31.62903 | 130.15013 | 39525 ft | 408 kts | 197° |
| 2026-05-05 22:19 | 31.60093 | 130.14566 | 39676 ft | 409 kts | 197° |
| 2026-05-05 22:19 | 31.57282 | 130.14114 | 39842 ft | 410 kts | 197° |
| 2026-05-05 22:20 | 31.54452 | 130.13666 | 40004 ft | 412 kts | 197° |
| 2026-05-05 22:20 | 31.48726 | 130.12746 | 40089 ft | 413 kts | 199° |
| 2026-05-05 22:21 | 31.43314 | 130.10983 | 40085 ft | 401 kts | 209° |
| 2026-05-05 22:21 | 31.38422 | 130.08011 | 40050 ft | 392 kts | 218° |
| 2026-05-05 22:22 | 31.34232 | 130.04050 | 40036 ft | 386 kts | 227° |
| 2026-05-05 22:22 | 31.30754 | 129.99298 | 40060 ft | 385 kts | 233° |
| 2026-05-05 22:23 | 31.27447 | 129.94382 | 40069 ft | 385 kts | 233° |
| 2026-05-05 22:23 | 31.24156 | 129.89468 | 40063 ft | 386 kts | 234° |
| 2026-05-05 22:24 | 31.20838 | 129.84512 | 40061 ft | 387 kts | 233° |
| 2026-05-05 22:24 | 31.17536 | 129.79578 | 40060 ft | 386 kts | 234° |
| 2026-05-05 22:25 | 31.14242 | 129.74657 | 40054 ft | 386 kts | 234° |
| 2026-05-05 22:25 | 31.10930 | 129.69716 | 40065 ft | 386 kts | 234° |
| 2026-05-05 22:26 | 31.07635 | 129.64812 | 40068 ft | 386 kts | 234° |
| 2026-05-05 22:26 | 31.04316 | 129.59876 | 40070 ft | 386 kts | 233° |
| 2026-05-05 22:27 | 31.01001 | 129.54958 | 40071 ft | 386 kts | 233° |
| 2026-05-05 22:27 | 30.97720 | 129.50079 | 40063 ft | 385 kts | 234° |
| 2026-05-05 22:28 | 30.94418 | 129.45186 | 40069 ft | 384 kts | 233° |
| 2026-05-05 22:28 | 30.91111 | 129.40295 | 40061 ft | 385 kts | 234° |
| 2026-05-05 22:29 | 30.87815 | 129.35425 | 40058 ft | 384 kts | 234° |
| 2026-05-05 22:29 | 30.84521 | 129.30556 | 40060 ft | 384 kts | 233° |
| 2026-05-05 22:30 | 30.81210 | 129.25665 | 40054 ft | 385 kts | 234° |
| 2026-05-05 22:30 | 30.77950 | 129.20854 | 40055 ft | 385 kts | 234° |
| 2026-05-05 22:31 | 30.74674 | 129.15930 | 40054 ft | 386 kts | 235° |
| 2026-05-05 22:31 | 30.71440 | 129.10977 | 40051 ft | 385 kts | 234° |
| 2026-05-05 22:32 | 30.68194 | 129.06047 | 40052 ft | 384 kts | 233° |
| 2026-05-05 22:32 | 30.64954 | 129.01147 | 40055 ft | 385 kts | 234° |
| 2026-05-05 22:33 | 30.61706 | 128.96199 | 40053 ft | 384 kts | 234° |
| 2026-05-05 22:33 | 30.58470 | 128.91290 | 40050 ft | 385 kts | 233° |
| 2026-05-05 22:34 | 30.55199 | 128.86354 | 40050 ft | 386 kts | 234° |
| 2026-05-05 22:34 | 30.51943 | 128.81424 | 40049 ft | 385 kts | 233° |
| 2026-05-05 22:35 | 30.48693 | 128.76520 | 40054 ft | 387 kts | 234° |
| 2026-05-05 22:35 | 30.45425 | 128.71594 | 40050 ft | 385 kts | 234° |
| 2026-05-05 22:36 | 30.42159 | 128.66681 | 40055 ft | 385 kts | 234° |
| 2026-05-05 22:36 | 30.38890 | 128.61755 | 40052 ft | 387 kts | 233° |
| 2026-05-05 22:37 | 30.35625 | 128.56850 | 40055 ft | 386 kts | 233° |
| 2026-05-05 22:37 | 30.32340 | 128.51918 | 40056 ft | 386 kts | 233° |
| 2026-05-05 22:38 | 30.29059 | 128.47015 | 40055 ft | 386 kts | 234° |
| 2026-05-05 22:38 | 30.25795 | 128.42127 | 40056 ft | 385 kts | 233° |
| 2026-05-05 22:39 | 30.22512 | 128.37216 | 40058 ft | 386 kts | 234° |
| 2026-05-05 22:39 | 30.19242 | 128.32338 | 40056 ft | 385 kts | 234° |
| 2026-05-05 22:40 | 30.15963 | 128.27420 | 40048 ft | 388 kts | 233° |
| 2026-05-05 22:40 | 30.12667 | 128.22523 | 40059 ft | 388 kts | 233° |
| 2026-05-05 22:41 | 30.09361 | 128.17589 | 40057 ft | 388 kts | 233° |
| 2026-05-05 22:41 | 30.06037 | 128.12688 | 40055 ft | 388 kts | 234° |
| 2026-05-05 22:42 | 30.02748 | 128.07752 | 40060 ft | 389 kts | 233° |
| 2026-05-05 22:42 | 29.99441 | 128.02867 | 40055 ft | 388 kts | 232° |
| 2026-05-05 22:43 | 29.96142 | 127.97984 | 40048 ft | 388 kts | 232° |
| 2026-05-05 22:43 | 29.92825 | 127.93082 | 40025 ft | 388 kts | 233° |
| 2026-05-05 22:44 | 29.89506 | 127.88177 | 40047 ft | 388 kts | 233° |
| 2026-05-05 22:44 | 29.86164 | 127.83307 | 40036 ft | 388 kts | 231° |
| 2026-05-05 22:45 | 29.82639 | 127.78588 | 40037 ft | 390 kts | 231° |
| 2026-05-05 22:45 | 29.79149 | 127.73878 | 40030 ft | 390 kts | 231° |
| 2026-05-05 22:46 | 29.75614 | 127.69145 | 40048 ft | 391 kts | 231° |
| 2026-05-05 22:46 | 29.72089 | 127.64402 | 40041 ft | 391 kts | 231° |
| 2026-05-05 22:47 | 29.68549 | 127.59660 | 40045 ft | 391 kts | 230° |
| 2026-05-05 22:47 | 29.64998 | 127.54904 | 40048 ft | 391 kts | 231° |
| 2026-05-05 22:48 | 29.61472 | 127.50196 | 40041 ft | 391 kts | 230° |
| 2026-05-05 22:48 | 29.57953 | 127.45405 | 40046 ft | 392 kts | 233° |
| 2026-05-05 22:49 | 29.54572 | 127.40513 | 40039 ft | 392 kts | 232° |
| 2026-05-05 22:49 | 29.51196 | 127.35635 | 40048 ft | 393 kts | 232° |
| 2026-05-05 22:50 | 29.47802 | 127.30735 | 40052 ft | 393 kts | 231° |
| 2026-05-05 22:50 | 29.44398 | 127.25825 | 40043 ft | 393 kts | 232° |
| 2026-05-05 22:51 | 29.41003 | 127.20925 | 40047 ft | 394 kts | 232° |
| 2026-05-05 22:51 | 29.37604 | 127.16023 | 40058 ft | 395 kts | 231° |
| 2026-05-05 22:52 | 29.34169 | 127.11086 | 40048 ft | 394 kts | 232° |
| 2026-05-05 22:52 | 29.30776 | 127.06208 | 40054 ft | 394 kts | 231° |
| 2026-05-05 22:53 | 29.27352 | 127.01292 | 40064 ft | 394 kts | 231° |
| 2026-05-05 22:53 | 29.23939 | 126.96403 | 40026 ft | 394 kts | 232° |
| 2026-05-05 22:54 | 29.20521 | 126.91508 | 40048 ft | 395 kts | 232° |
| 2026-05-05 22:54 | 29.17101 | 126.86609 | 40035 ft | 394 kts | 231° |
| 2026-05-05 22:55 | 29.13678 | 126.81718 | 40037 ft | 395 kts | 232° |
| 2026-05-05 22:55 | 29.10242 | 126.76815 | 40032 ft | 397 kts | 232° |
| 2026-05-05 22:56 | 29.06790 | 126.71887 | 40057 ft | 396 kts | 231° |
| 2026-05-05 22:56 | 29.03363 | 126.66999 | 40045 ft | 399 kts | 231° |
| 2026-05-05 22:57 | 28.99897 | 126.62066 | 40033 ft | 400 kts | 231° |
| 2026-05-05 22:57 | 28.96392 | 126.57102 | 40039 ft | 401 kts | 231° |
| 2026-05-05 22:58 | 28.92802 | 126.52253 | 40041 ft | 400 kts | 230° |
| 2026-05-05 22:58 | 28.89194 | 126.47414 | 40042 ft | 401 kts | 230° |
| 2026-05-05 22:59 | 28.85582 | 126.42550 | 40036 ft | 401 kts | 231° |
| 2026-05-05 22:59 | 28.81987 | 126.37713 | 40026 ft | 401 kts | 230° |
| 2026-05-05 23:00 | 28.76583 | 126.30444 | 40041 ft | 403 kts | 230° |
| 2026-05-05 23:00 | 28.72958 | 126.25577 | 40027 ft | 402 kts | 230° |
| 2026-05-05 23:01 | 28.69333 | 126.20711 | 40039 ft | 404 kts | 230° |
| 2026-05-05 23:01 | 28.65722 | 126.15868 | 40043 ft | 402 kts | 229° |
| 2026-05-05 23:02 | 28.62109 | 126.10975 | 40027 ft | 404 kts | 231° |
| 2026-05-05 23:02 | 28.58603 | 126.06023 | 40043 ft | 405 kts | 231° |
| 2026-05-05 23:03 | 28.55085 | 126.01051 | 40037 ft | 405 kts | 231° |
| 2026-05-05 23:03 | 28.51541 | 125.96053 | 40028 ft | 404 kts | 231° |
| 2026-05-05 23:04 | 28.48009 | 125.91082 | 40028 ft | 405 kts | 231° |
| 2026-05-05 23:04 | 28.44477 | 125.86124 | 40044 ft | 406 kts | 231° |
| 2026-05-05 23:05 | 28.40928 | 125.81140 | 40027 ft | 405 kts | 232° |
| 2026-05-05 23:05 | 28.37390 | 125.76171 | 40036 ft | 406 kts | 231° |
| 2026-05-05 23:06 | 28.33818 | 125.71171 | 40030 ft | 408 kts | 231° |
| 2026-05-05 23:06 | 28.30249 | 125.66179 | 40030 ft | 407 kts | 231° |
| 2026-05-05 23:07 | 28.26684 | 125.61201 | 40027 ft | 408 kts | 231° |
| 2026-05-05 23:07 | 28.23091 | 125.56187 | 40030 ft | 409 kts | 232° |
| 2026-05-05 23:08 | 28.19527 | 125.51218 | 40016 ft | 410 kts | 231° |
| 2026-05-05 23:08 | 28.15913 | 125.46191 | 40018 ft | 411 kts | 232° |
| 2026-05-05 23:09 | 28.12310 | 125.41180 | 40017 ft | 411 kts | 231° |
| 2026-05-05 23:09 | 28.08703 | 125.36166 | 40014 ft | 412 kts | 231° |
| 2026-05-05 23:10 | 28.05082 | 125.31145 | 40020 ft | 412 kts | 231° |
| 2026-05-05 23:10 | 28.01463 | 125.26131 | 40015 ft | 411 kts | 231° |
| 2026-05-05 23:11 | 27.97847 | 125.21122 | 40010 ft | 413 kts | 231° |
| 2026-05-05 23:11 | 27.94224 | 125.16111 | 40013 ft | 413 kts | 231° |
| 2026-05-05 23:12 | 27.90599 | 125.11111 | 40013 ft | 414 kts | 231° |
| 2026-05-05 23:12 | 27.86938 | 125.06055 | 40001 ft | 414 kts | 231° |
| 2026-05-05 23:13 | 27.83303 | 125.01047 | 39999 ft | 414 kts | 231° |
| 2026-05-05 23:13 | 27.79670 | 124.96047 | 40007 ft | 414 kts | 231° |
| 2026-05-05 23:14 | 27.75991 | 124.90989 | 40009 ft | 415 kts | 231° |
| 2026-05-05 23:14 | 27.72336 | 124.85967 | 40003 ft | 417 kts | 231° |
| 2026-05-05 23:15 | 27.68652 | 124.80909 | 39998 ft | 419 kts | 231° |
| 2026-05-05 23:15 | 27.64965 | 124.75850 | 40005 ft | 419 kts | 232° |
| 2026-05-05 23:16 | 27.61248 | 124.70766 | 40010 ft | 419 kts | 232° |
| 2026-05-05 23:16 | 27.57560 | 124.65734 | 39998 ft | 419 kts | 231° |
| 2026-05-05 23:17 | 27.53836 | 124.60648 | 40015 ft | 419 kts | 231° |
| 2026-05-05 23:17 | 27.50140 | 124.55608 | 40005 ft | 420 kts | 232° |
| 2026-05-05 23:18 | 27.46416 | 124.50529 | 40007 ft | 421 kts | 232° |
| 2026-05-05 23:18 | 27.42693 | 124.45459 | 40003 ft | 421 kts | 232° |
| 2026-05-05 23:19 | 27.38969 | 124.40392 | 40015 ft | 422 kts | 232° |
| 2026-05-05 23:19 | 27.35214 | 124.35288 | 40013 ft | 422 kts | 232° |
| 2026-05-05 23:20 | 27.31467 | 124.30203 | 40006 ft | 423 kts | 232° |
| 2026-05-05 23:20 | 27.27724 | 124.25124 | 40018 ft | 422 kts | 232° |
| 2026-05-05 23:21 | 27.23970 | 124.20037 | 40013 ft | 423 kts | 232° |
| 2026-05-05 23:21 | 27.20229 | 124.14973 | 40007 ft | 423 kts | 232° |
| 2026-05-05 23:22 | 27.16453 | 124.09868 | 40009 ft | 424 kts | 232° |
| 2026-05-05 23:22 | 27.12702 | 124.04796 | 40012 ft | 425 kts | 232° |
| 2026-05-05 23:23 | 27.08929 | 123.99710 | 40013 ft | 426 kts | 232° |
| 2026-05-05 23:23 | 27.05090 | 123.94611 | 40010 ft | 427 kts | 232° |
| 2026-05-05 23:24 | 27.01278 | 123.89562 | 40014 ft | 427 kts | 231° |
| 2026-05-05 23:24 | 26.97416 | 123.84441 | 40006 ft | 428 kts | 231° |
| 2026-05-05 23:25 | 26.93581 | 123.79362 | 40010 ft | 428 kts | 232° |
| 2026-05-05 23:25 | 26.89744 | 123.74281 | 40012 ft | 428 kts | 231° |
| 2026-05-05 23:26 | 26.85903 | 123.69202 | 40003 ft | 428 kts | 232° |
| 2026-05-05 23:26 | 26.82035 | 123.64088 | 40007 ft | 429 kts | 232° |
| 2026-05-05 23:27 | 26.78187 | 123.59007 | 40006 ft | 429 kts | 232° |
| 2026-05-05 23:27 | 26.74337 | 123.53931 | 40001 ft | 430 kts | 232° |
| 2026-05-05 23:28 | 26.70487 | 123.48855 | 40004 ft | 430 kts | 232° |
| 2026-05-05 23:28 | 26.66600 | 123.43738 | 40009 ft | 430 kts | 232° |
| 2026-05-05 23:29 | 26.62734 | 123.38672 | 40011 ft | 431 kts | 232° |
| 2026-05-05 23:29 | 26.58849 | 123.33586 | 40013 ft | 431 kts | 231° |
| 2026-05-05 23:30 | 26.55158 | 123.28754 | 40009 ft | 432 kts | 232° |
| 2026-05-05 23:30 | 26.51417 | 123.23857 | 40017 ft | 431 kts | 232° |
| 2026-05-05 23:31 | 26.47540 | 123.18787 | 40011 ft | 431 kts | 232° |
| 2026-05-05 23:31 | 26.43629 | 123.13679 | 40006 ft | 432 kts | 232° |
| 2026-05-05 23:32 | 26.39744 | 123.08603 | 40001 ft | 431 kts | 232° |
| 2026-05-05 23:32 | 26.35828 | 123.03498 | 40012 ft | 432 kts | 232° |
| 2026-05-05 23:33 | 26.31918 | 122.98413 | 40011 ft | 433 kts | 232° |
| 2026-05-05 23:33 | 26.28020 | 122.93365 | 40002 ft | 432 kts | 232° |
| 2026-05-05 23:34 | 26.24094 | 122.88275 | 39997 ft | 433 kts | 232° |
| 2026-05-05 23:34 | 26.20185 | 122.83208 | 40001 ft | 433 kts | 232° |
| 2026-05-05 23:35 | 26.16270 | 122.78140 | 39993 ft | 434 kts | 232° |
| 2026-05-05 23:35 | 26.12328 | 122.73038 | 40000 ft | 435 kts | 233° |
| 2026-05-05 23:36 | 26.08379 | 122.67935 | 39991 ft | 435 kts | 233° |
| 2026-05-05 23:36 | 26.04462 | 122.62874 | 39996 ft | 435 kts | 233° |
| 2026-05-05 23:37 | 26.00505 | 122.57767 | 39980 ft | 435 kts | 233° |
| 2026-05-05 23:37 | 25.96578 | 122.52706 | 39985 ft | 432 kts | 233° |
| 2026-05-05 23:38 | 25.92644 | 122.47650 | 39987 ft | 431 kts | 233° |
| 2026-05-05 23:38 | 25.88730 | 122.42631 | 39989 ft | 431 kts | 233° |
| 2026-05-05 23:39 | 25.84828 | 122.37625 | 39989 ft | 430 kts | 233° |
| 2026-05-05 23:39 | 25.80901 | 122.32589 | 39986 ft | 430 kts | 233° |
| 2026-05-05 23:40 | 25.77013 | 122.27605 | 39995 ft | 429 kts | 233° |
| 2026-05-05 23:40 | 25.73100 | 122.22592 | 39992 ft | 429 kts | 233° |
| 2026-05-05 23:41 | 25.69199 | 122.17595 | 39996 ft | 429 kts | 233° |
| 2026-05-05 23:41 | 25.65291 | 122.12602 | 39991 ft | 429 kts | 233° |
| 2026-05-05 23:42 | 25.61891 | 122.07221 | 39993 ft | 427 kts | 246° |
| 2026-05-05 23:42 | 25.59823 | 122.01093 | 39996 ft | 431 kts | 256° |
| 2026-05-05 23:43 | 25.58184 | 121.94685 | 39992 ft | 431 kts | 256° |
| 2026-05-05 23:43 | 25.56566 | 121.88335 | 39990 ft | 432 kts | 256° |
| 2026-05-05 23:44 | 25.54933 | 121.81928 | 39996 ft | 432 kts | 256° |
| 2026-05-05 23:44 | 25.53300 | 121.75538 | 40000 ft | 432 kts | 256° |
| 2026-05-05 23:45 | 25.51675 | 121.69191 | 40000 ft | 432 kts | 257° |
| 2026-05-05 23:45 | 25.50028 | 121.62780 | 40004 ft | 433 kts | 257° |
| 2026-05-05 23:46 | 25.47691 | 121.56656 | 40005 ft | 435 kts | 241° |
| 2026-05-05 23:46 | 25.43928 | 121.51461 | 40007 ft | 435 kts | 234° |
| 2026-05-05 23:47 | 25.39983 | 121.46405 | 40008 ft | 435 kts | 234° |
| 2026-05-05 23:47 | 25.35992 | 121.41319 | 40009 ft | 436 kts | 234° |
| 2026-05-05 23:48 | 25.32028 | 121.36269 | 40005 ft | 435 kts | 235° |
| 2026-05-05 23:48 | 25.28070 | 121.31222 | 40000 ft | 436 kts | 234° |
| 2026-05-05 23:49 | 25.24111 | 121.26175 | 40004 ft | 436 kts | 234° |
| 2026-05-05 23:49 | 25.20149 | 121.21127 | 39994 ft | 436 kts | 234° |
| 2026-05-05 23:50 | 25.16181 | 121.16075 | 39997 ft | 436 kts | 235° |
| 2026-05-05 23:50 | 25.12189 | 121.11003 | 40001 ft | 437 kts | 235° |
| 2026-05-05 23:51 | 25.08225 | 121.05969 | 39998 ft | 436 kts | 235° |
| 2026-05-05 23:51 | 25.04249 | 121.00922 | 39994 ft | 437 kts | 235° |
| 2026-05-05 23:52 | 25.00258 | 120.95860 | 39991 ft | 437 kts | 235° |
| 2026-05-05 23:52 | 24.96253 | 120.90789 | 39992 ft | 438 kts | 235° |
| 2026-05-05 23:53 | 24.91942 | 120.86060 | 39972 ft | 456 kts | 217° |
| 2026-05-05 23:53 | 24.88909 | 120.84780 | 39981 ft | 476 kts | 197° |
| 2026-05-05 23:53 | 24.85566 | 120.84681 | 39991 ft | 495 kts | 177° |
| 2026-05-05 23:54 | 24.82204 | 120.85825 | 39993 ft | 511 kts | 157° |
| 2026-05-05 23:54 | 24.79300 | 120.88097 | 39996 ft | 523 kts | 137° |
| 2026-05-05 23:54 | 24.77123 | 120.91293 | 39997 ft | 529 kts | 117° |
| 2026-05-05 23:54 | 24.75917 | 120.95122 | 40001 ft | 529 kts | 98° |
| 2026-05-05 23:55 | 24.75829 | 120.99103 | 39999 ft | 524 kts | 78° |
| 2026-05-05 23:55 | 24.76833 | 121.02856 | 40009 ft | 512 kts | 58° |
| 2026-05-05 23:55 | 24.78801 | 121.06007 | 40009 ft | 495 kts | 38° |
| 2026-05-05 23:55 | 24.81525 | 121.08240 | 40012 ft | 475 kts | 18° |
| 2026-05-05 23:56 | 24.84596 | 121.09280 | 40015 ft | 455 kts | 358° |
| 2026-05-05 23:56 | 24.87673 | 121.09108 | 40021 ft | 437 kts | 341° |
| 2026-05-05 23:56 | 24.90549 | 121.08095 | 40017 ft | 429 kts | 330° |
| 2026-05-05 23:56 | 24.93237 | 121.06763 | 40000 ft | 423 kts | 334° |
| 2026-05-05 23:57 | 24.96079 | 121.05993 | 39993 ft | 421 kts | 347° |
| 2026-05-05 23:57 | 24.99033 | 121.05975 | 39996 ft | 429 kts | 0° |
| 2026-05-05 23:57 | 25.01962 | 121.06720 | 39999 ft | 442 kts | 13° |
| 2026-05-05 23:57 | 25.04764 | 121.08217 | 39999 ft | 456 kts | 26° |
| 2026-05-05 23:58 | 25.07295 | 121.10435 | 39993 ft | 469 kts | 39° |
| 2026-05-05 23:58 | 25.09372 | 121.13245 | 39992 ft | 480 kts | 52° |
| 2026-05-05 23:58 | 25.10892 | 121.16514 | 39993 ft | 489 kts | 65° |
| 2026-05-05 23:58 | 25.11797 | 121.20171 | 39996 ft | 495 kts | 78° |
| 2026-05-05 23:59 | 25.13009 | 121.27567 | 39999 ft | 493 kts | 71° |
| 2026-05-05 23:59 | 25.14852 | 121.34821 | 39999 ft | 492 kts | 70° |
| 2026-05-06 00:00 | 25.16767 | 121.42052 | 40003 ft | 493 kts | 70° |
| 2026-05-06 00:00 | 25.18693 | 121.49282 | 39998 ft | 493 kts | 70° |
| 2026-05-06 00:01 | 25.20646 | 121.56531 | 40000 ft | 493 kts | 70° |
| 2026-05-06 00:01 | 25.22603 | 121.63757 | 40003 ft | 493 kts | 70° |
| 2026-05-06 00:02 | 25.24585 | 121.70999 | 39995 ft | 493 kts | 70° |
| 2026-05-06 00:02 | 25.26588 | 121.78236 | 40000 ft | 494 kts | 70° |
| 2026-05-06 00:03 | 25.28606 | 121.85465 | 40011 ft | 495 kts | 70° |
| 2026-05-06 00:03 | 25.30653 | 121.92703 | 40007 ft | 495 kts | 70° |
| 2026-05-06 00:04 | 25.32706 | 121.99943 | 40015 ft | 495 kts | 70° |
| 2026-05-06 00:04 | 25.34780 | 122.07178 | 40007 ft | 496 kts | 70° |
| 2026-05-06 00:05 | 25.37916 | 122.18065 | 40011 ft | 497 kts | 70° |
| 2026-05-06 00:06 | 25.40018 | 122.25305 | 40003 ft | 497 kts | 70° |
| 2026-05-06 00:06 | 25.42137 | 122.32568 | 40006 ft | 497 kts | 70° |
| 2026-05-06 00:07 | 25.44245 | 122.39838 | 40007 ft | 496 kts | 70° |
| 2026-05-06 00:07 | 25.46339 | 122.47047 | 40007 ft | 496 kts | 70° |
| 2026-05-06 00:08 | 25.48467 | 122.54314 | 40007 ft | 497 kts | 70° |
| 2026-05-06 00:08 | 25.50592 | 122.61536 | 40006 ft | 497 kts | 70° |
| 2026-05-06 00:09 | 25.52757 | 122.68827 | 39997 ft | 498 kts | 70° |
| 2026-05-06 00:09 | 25.54929 | 122.76083 | 39997 ft | 499 kts | 70° |
| 2026-05-06 00:10 | 25.57119 | 122.83325 | 39985 ft | 500 kts | 70° |
| 2026-05-06 00:10 | 25.59322 | 122.90616 | 39988 ft | 499 kts | 70° |
| 2026-05-06 00:11 | 25.61536 | 122.97886 | 39984 ft | 500 kts | 70° |
| 2026-05-06 00:11 | 25.63779 | 123.05161 | 39986 ft | 500 kts | 70° |
| 2026-05-06 00:12 | 25.66050 | 123.12440 | 39985 ft | 500 kts | 70° |
| 2026-05-06 00:12 | 25.68314 | 123.19694 | 39984 ft | 500 kts | 70° |
| 2026-05-06 00:13 | 25.70589 | 123.26983 | 39983 ft | 500 kts | 69° |
| 2026-05-06 00:13 | 25.72870 | 123.34247 | 39979 ft | 500 kts | 69° |
| 2026-05-06 00:14 | 25.75161 | 123.41505 | 39984 ft | 500 kts | 70° |
| 2026-05-06 00:14 | 25.77471 | 123.48753 | 39979 ft | 500 kts | 70° |
| 2026-05-06 00:15 | 25.79801 | 123.56000 | 39981 ft | 501 kts | 69° |
| 2026-05-06 00:15 | 25.82167 | 123.63288 | 39976 ft | 501 kts | 69° |
| 2026-05-06 00:16 | 25.84501 | 123.70506 | 39975 ft | 501 kts | 70° |
| 2026-05-06 00:16 | 25.86871 | 123.77771 | 39975 ft | 502 kts | 70° |
| 2026-05-06 00:17 | 25.89263 | 123.85062 | 39975 ft | 503 kts | 70° |
| 2026-05-06 00:17 | 25.91657 | 123.92338 | 39971 ft | 503 kts | 69° |
| 2026-05-06 00:18 | 25.94060 | 123.99594 | 39969 ft | 502 kts | 70° |
| 2026-05-06 00:18 | 25.96470 | 124.06840 | 39974 ft | 501 kts | 70° |
| 2026-05-06 00:19 | 25.98892 | 124.14133 | 39978 ft | 502 kts | 69° |
| 2026-05-06 00:19 | 26.01307 | 124.21342 | 39986 ft | 501 kts | 69° |
| 2026-05-06 00:20 | 26.03759 | 124.28591 | 39985 ft | 500 kts | 70° |
| 2026-05-06 00:20 | 26.06209 | 124.35805 | 39985 ft | 500 kts | 69° |
| 2026-05-06 00:21 | 26.08669 | 124.43008 | 39986 ft | 502 kts | 69° |
| 2026-05-06 00:21 | 26.11147 | 124.50248 | 39981 ft | 502 kts | 69° |
| 2026-05-06 00:22 | 26.13624 | 124.57469 | 39985 ft | 501 kts | 69° |
| 2026-05-06 00:22 | 26.16104 | 124.64686 | 39981 ft | 501 kts | 69° |
| 2026-05-06 00:23 | 26.18614 | 124.71925 | 39980 ft | 501 kts | 70° |
| 2026-05-06 00:23 | 26.21130 | 124.79127 | 39984 ft | 501 kts | 70° |
| 2026-05-06 00:24 | 26.23659 | 124.86336 | 39982 ft | 501 kts | 70° |
| 2026-05-06 00:24 | 26.26199 | 124.93583 | 39981 ft | 501 kts | 70° |
| 2026-05-06 00:25 | 26.28719 | 125.00774 | 39985 ft | 501 kts | 69° |
| 2026-05-06 00:25 | 26.31254 | 125.07961 | 39994 ft | 501 kts | 69° |
| 2026-05-06 00:26 | 26.33817 | 125.15167 | 39997 ft | 502 kts | 69° |
| 2026-05-06 00:26 | 26.36417 | 125.22408 | 39989 ft | 501 kts | 69° |
| 2026-05-06 00:27 | 26.39022 | 125.29593 | 40000 ft | 501 kts | 69° |
| 2026-05-06 00:27 | 26.41637 | 125.36747 | 40002 ft | 502 kts | 69° |
| 2026-05-06 00:28 | 26.44286 | 125.43951 | 39999 ft | 501 kts | 69° |
| 2026-05-06 00:28 | 26.46920 | 125.51083 | 39993 ft | 501 kts | 69° |
| 2026-05-06 00:29 | 26.49591 | 125.58279 | 40008 ft | 501 kts | 69° |
| 2026-05-06 00:29 | 26.52261 | 125.65409 | 40008 ft | 500 kts | 69° |
| 2026-05-06 00:30 | 26.54955 | 125.72608 | 40008 ft | 500 kts | 70° |
| 2026-05-06 00:30 | 26.57649 | 125.79779 | 40005 ft | 500 kts | 70° |
| 2026-05-06 00:31 | 26.60339 | 125.86889 | 40009 ft | 499 kts | 69° |
| 2026-05-06 00:31 | 26.63053 | 125.94031 | 40026 ft | 499 kts | 70° |
| 2026-05-06 00:32 | 26.65782 | 126.01138 | 40011 ft | 498 kts | 69° |
| 2026-05-06 00:32 | 26.68499 | 126.08177 | 40018 ft | 497 kts | 69° |
| 2026-05-06 00:33 | 26.71244 | 126.15298 | 40015 ft | 497 kts | 69° |
| 2026-05-06 00:33 | 26.73968 | 126.22385 | 40029 ft | 497 kts | 69° |
| 2026-05-06 00:34 | 26.76702 | 126.29471 | 40018 ft | 499 kts | 69° |
| 2026-05-06 00:34 | 26.79428 | 126.36543 | 40024 ft | 498 kts | 69° |
| 2026-05-06 00:35 | 26.82180 | 126.43652 | 40017 ft | 498 kts | 69° |
| 2026-05-06 00:35 | 26.84951 | 126.50737 | 40029 ft | 497 kts | 69° |
| 2026-05-06 00:36 | 26.87701 | 126.57801 | 40032 ft | 498 kts | 69° |
| 2026-05-06 00:36 | 26.90468 | 126.64882 | 40036 ft | 497 kts | 69° |
| 2026-05-06 00:37 | 26.93266 | 126.71948 | 40037 ft | 497 kts | 69° |
| 2026-05-06 00:37 | 26.96079 | 126.79012 | 40088 ft | 496 kts | 69° |
| 2026-05-06 00:38 | 26.98891 | 126.86047 | 40058 ft | 496 kts | 69° |
| 2026-05-06 00:38 | 27.01722 | 126.93086 | 40050 ft | 497 kts | 69° |
| 2026-05-06 00:39 | 27.04559 | 127.00106 | 40035 ft | 497 kts | 69° |
| 2026-05-06 00:39 | 27.07420 | 127.07159 | 40024 ft | 496 kts | 69° |
| 2026-05-06 00:40 | 27.10283 | 127.14163 | 40018 ft | 496 kts | 69° |
| 2026-05-06 00:40 | 27.13130 | 127.21210 | 40025 ft | 497 kts | 69° |
| 2026-05-06 00:41 | 27.15991 | 127.28279 | 40019 ft | 499 kts | 69° |
| 2026-05-06 00:41 | 27.18837 | 127.35358 | 40022 ft | 500 kts | 69° |
| 2026-05-06 00:42 | 27.21684 | 127.42460 | 40022 ft | 500 kts | 69° |
| 2026-05-06 00:42 | 27.24538 | 127.49579 | 40017 ft | 500 kts | 69° |
| 2026-05-06 00:43 | 27.27395 | 127.56669 | 40018 ft | 501 kts | 68° |
| 2026-05-06 00:43 | 27.30255 | 127.63841 | 40021 ft | 501 kts | 68° |
| 2026-05-06 00:44 | 27.33063 | 127.70939 | 40008 ft | 503 kts | 69° |
| 2026-05-06 00:44 | 27.35921 | 127.78102 | 40012 ft | 504 kts | 68° |
| 2026-05-06 00:45 | 27.38786 | 127.85307 | 40009 ft | 504 kts | 69° |
| 2026-05-06 00:45 | 27.41627 | 127.92454 | 40018 ft | 503 kts | 69° |
| 2026-05-06 00:46 | 27.44508 | 127.99648 | 40013 ft | 506 kts | 69° |
| 2026-05-06 00:46 | 27.47345 | 128.06825 | 40014 ft | 505 kts | 69° |
| 2026-05-06 00:47 | 27.50232 | 128.14076 | 40030 ft | 506 kts | 69° |
| 2026-05-06 00:47 | 27.53075 | 128.21280 | 40025 ft | 506 kts | 69° |
| 2026-05-06 00:48 | 27.55901 | 128.28493 | 40017 ft | 506 kts | 69° |
| 2026-05-06 00:48 | 27.58737 | 128.35741 | 40029 ft | 506 kts | 69° |
| 2026-05-06 00:49 | 27.61571 | 128.42950 | 40017 ft | 506 kts | 69° |
| 2026-05-06 00:49 | 27.64405 | 128.50227 | 40020 ft | 506 kts | 69° |
| 2026-05-06 00:50 | 27.67231 | 128.57461 | 40038 ft | 506 kts | 68° |
| 2026-05-06 00:50 | 27.70058 | 128.64677 | 40021 ft | 504 kts | 68° |
| 2026-05-06 00:51 | 27.72889 | 128.71904 | 40030 ft | 504 kts | 69° |
| 2026-05-06 00:51 | 27.75684 | 128.79066 | 40031 ft | 503 kts | 69° |
| 2026-05-06 00:52 | 27.78482 | 128.86295 | 40035 ft | 503 kts | 69° |
| 2026-05-06 00:52 | 27.81263 | 128.93500 | 40032 ft | 502 kts | 69° |
| 2026-05-06 00:53 | 27.84047 | 129.00713 | 40033 ft | 501 kts | 69° |
| 2026-05-06 00:53 | 27.86850 | 129.07928 | 40030 ft | 501 kts | 69° |
| 2026-05-06 00:54 | 27.89617 | 129.15115 | 40031 ft | 502 kts | 69° |
| 2026-05-06 00:54 | 27.92393 | 129.22328 | 40023 ft | 503 kts | 69° |
| 2026-05-06 00:55 | 27.95162 | 129.29547 | 40018 ft | 503 kts | 69° |
| 2026-05-06 00:55 | 27.97931 | 129.36800 | 40007 ft | 503 kts | 69° |
| 2026-05-06 00:56 | 28.00706 | 129.44051 | 40027 ft | 502 kts | 68° |
| 2026-05-06 00:56 | 28.03478 | 129.51308 | 40027 ft | 503 kts | 68° |
| 2026-05-06 00:57 | 28.06248 | 129.58569 | 40019 ft | 504 kts | 68° |
| 2026-05-06 00:57 | 28.09007 | 129.65819 | 40008 ft | 504 kts | 69° |
| 2026-05-06 00:58 | 28.11778 | 129.73082 | 40007 ft | 504 kts | 69° |
| 2026-05-06 00:58 | 28.14543 | 129.80331 | 40007 ft | 503 kts | 69° |
| 2026-05-06 00:59 | 28.17314 | 129.87631 | 40011 ft | 504 kts | 68° |
| 2026-05-06 00:59 | 28.20070 | 129.94878 | 40014 ft | 505 kts | 69° |
| 2026-05-06 01:00 | 28.22872 | 130.02156 | 40010 ft | 505 kts | 69° |
| 2026-05-06 01:00 | 28.25689 | 130.09445 | 39998 ft | 506 kts | 68° |
| 2026-05-06 01:01 | 28.28473 | 130.16783 | 39991 ft | 506 kts | 69° |
| 2026-05-06 01:01 | 28.31261 | 130.24074 | 39994 ft | 505 kts | 68° |
| 2026-05-06 01:02 | 28.34036 | 130.31374 | 39999 ft | 506 kts | 69° |
| 2026-05-06 01:02 | 28.36802 | 130.38675 | 40001 ft | 507 kts | 69° |
| 2026-05-06 01:03 | 28.39572 | 130.46024 | 39997 ft | 507 kts | 68° |
| 2026-05-06 01:03 | 28.42320 | 130.53386 | 39999 ft | 507 kts | 69° |
| 2026-05-06 01:04 | 28.45077 | 130.60731 | 39997 ft | 507 kts | 68° |
| 2026-05-06 01:04 | 28.47805 | 130.68027 | 39994 ft | 509 kts | 68° |
| 2026-05-06 01:05 | 28.50538 | 130.75389 | 40002 ft | 508 kts | 69° |
| 2026-05-06 01:05 | 28.53256 | 130.82785 | 40016 ft | 508 kts | 69° |
| 2026-05-06 01:06 | 28.55999 | 130.90181 | 40031 ft | 508 kts | 68° |
| 2026-05-06 01:06 | 28.58721 | 130.97574 | 40019 ft | 507 kts | 69° |
| 2026-05-06 01:07 | 28.61444 | 131.04944 | 40022 ft | 508 kts | 69° |
| 2026-05-06 01:07 | 28.64168 | 131.12300 | 40026 ft | 508 kts | 69° |
| 2026-05-06 01:08 | 28.66879 | 131.19690 | 40024 ft | 506 kts | 69° |
| 2026-05-06 01:08 | 28.69591 | 131.27058 | 40024 ft | 506 kts | 69° |
| 2026-05-06 01:09 | 28.72311 | 131.34441 | 40020 ft | 507 kts | 68° |
| 2026-05-06 01:09 | 28.75033 | 131.41820 | 40024 ft | 506 kts | 68° |
| 2026-05-06 01:10 | 28.77751 | 131.49175 | 40023 ft | 506 kts | 68° |
| 2026-05-06 01:10 | 28.80463 | 131.56546 | 40031 ft | 506 kts | 69° |
| 2026-05-06 01:11 | 28.83170 | 131.63913 | 40023 ft | 505 kts | 68° |
| 2026-05-06 01:11 | 28.85917 | 131.71313 | 40022 ft | 506 kts | 69° |
| 2026-05-06 01:12 | 28.88650 | 131.78661 | 40027 ft | 504 kts | 69° |
| 2026-05-06 01:12 | 28.91375 | 131.85988 | 40027 ft | 504 kts | 69° |
| 2026-05-06 01:13 | 28.94111 | 131.93375 | 40033 ft | 505 kts | 69° |
| 2026-05-06 01:13 | 28.96814 | 132.00699 | 40027 ft | 505 kts | 69° |
| 2026-05-06 01:14 | 29.00898 | 132.11751 | 40028 ft | 503 kts | 69° |
| 2026-05-06 01:14 | 29.03638 | 132.19128 | 40031 ft | 504 kts | 68° |
| 2026-05-06 01:15 | 29.06374 | 132.26447 | 40030 ft | 504 kts | 68° |
| 2026-05-06 01:15 | 29.09100 | 132.33780 | 40037 ft | 504 kts | 68° |
| 2026-05-06 01:16 | 29.11862 | 132.41167 | 40035 ft | 504 kts | 68° |
| 2026-05-06 01:16 | 29.14589 | 132.48492 | 40036 ft | 504 kts | 68° |
| 2026-05-06 01:17 | 29.17319 | 132.55829 | 40033 ft | 503 kts | 68° |
| 2026-05-06 01:17 | 29.20062 | 132.63199 | 40033 ft | 503 kts | 68° |
| 2026-05-06 01:18 | 29.22797 | 132.70523 | 40030 ft | 503 kts | 68° |
| 2026-05-06 01:18 | 29.25537 | 132.77872 | 40038 ft | 503 kts | 69° |
| 2026-05-06 01:19 | 29.28298 | 132.85259 | 40032 ft | 504 kts | 68° |
| 2026-05-06 01:19 | 29.31037 | 132.92590 | 40036 ft | 504 kts | 68° |
| 2026-05-06 01:20 | 29.33794 | 132.99992 | 40028 ft | 505 kts | 68° |
| 2026-05-06 01:20 | 29.36549 | 133.07320 | 40033 ft | 504 kts | 68° |
| 2026-05-06 01:21 | 29.39307 | 133.14662 | 40029 ft | 504 kts | 69° |
| 2026-05-06 01:21 | 29.42095 | 133.22014 | 40033 ft | 504 kts | 68° |
| 2026-05-06 01:22 | 29.44868 | 133.29410 | 40031 ft | 503 kts | 69° |
| 2026-05-06 01:22 | 29.47606 | 133.36749 | 40032 ft | 503 kts | 68° |
| 2026-05-06 01:23 | 29.50342 | 133.44118 | 40031 ft | 503 kts | 68° |
| 2026-05-06 01:23 | 29.53070 | 133.51477 | 40030 ft | 502 kts | 68° |
| 2026-05-06 01:24 | 29.55824 | 133.58859 | 40031 ft | 502 kts | 68° |
| 2026-05-06 01:24 | 29.58576 | 133.66173 | 40030 ft | 503 kts | 69° |
| 2026-05-06 01:25 | 29.61361 | 133.73549 | 40036 ft | 502 kts | 68° |
| 2026-05-06 01:25 | 29.64131 | 133.80888 | 40039 ft | 501 kts | 68° |
| 2026-05-06 01:26 | 29.66923 | 133.88200 | 40041 ft | 502 kts | 68° |
| 2026-05-06 01:26 | 29.69698 | 133.95512 | 40030 ft | 503 kts | 69° |
| 2026-05-06 01:27 | 29.72487 | 134.02829 | 40032 ft | 502 kts | 69° |
| 2026-05-06 01:27 | 29.75307 | 134.10217 | 40043 ft | 503 kts | 68° |
| 2026-05-06 01:28 | 29.78069 | 134.17545 | 40040 ft | 503 kts | 68° |
| 2026-05-06 01:28 | 29.80849 | 134.24904 | 40043 ft | 503 kts | 68° |
| 2026-05-06 01:29 | 29.83621 | 134.32300 | 40044 ft | 503 kts | 68° |
| 2026-05-06 01:29 | 29.86402 | 134.39714 | 40046 ft | 504 kts | 68° |
| 2026-05-06 01:30 | 29.89171 | 134.47108 | 40050 ft | 505 kts | 68° |
| 2026-05-06 01:30 | 29.91910 | 134.54501 | 40051 ft | 506 kts | 68° |
| 2026-05-06 01:31 | 29.94667 | 134.61945 | 40055 ft | 507 kts | 68° |
| 2026-05-06 01:31 | 29.97434 | 134.69400 | 40049 ft | 507 kts | 68° |
| 2026-05-06 01:32 | 30.00212 | 134.76843 | 40057 ft | 506 kts | 68° |
| 2026-05-06 01:32 | 30.02977 | 134.84300 | 40055 ft | 502 kts | 68° |
| 2026-05-06 01:33 | 30.05718 | 134.91637 | 40051 ft | 494 kts | 68° |
| 2026-05-06 01:33 | 30.08419 | 134.98791 | 40054 ft | 486 kts | 69° |
| 2026-05-06 01:34 | 30.11147 | 135.05890 | 40050 ft | 478 kts | 68° |
| 2026-05-06 01:34 | 30.13768 | 135.12790 | 40044 ft | 460 kts | 70° |
| 2026-05-06 01:35 | 30.14995 | 135.16126 | 40023 ft | 446 kts | 70° |